Time;durP1;ratioP1;P1;durP2;ratioP2;P2;SDS_P1;SDS_P2;PMS_P1;PMS_P2;Temp;Humidity;BMP_temperature;BMP_pressure;BME280_temperature;BME280_humidity;BME280_pressure;Samples;Min_cycle;Max_cycle;Signal;HPM_P1;HPM_P2
2023/06/20 00:00:25;;;;;;;;;;;;;;;;;;1040293;28;20435;-71
2023/06/20 00:00:55;;;;;;;;;;;;;;;;;;1040196;28;19963;-72
2023/06/20 00:01:25;;;;;;;;;;;;;;;;;;1040402;28;19960;-72
2023/06/20 00:01:55;;;;;;;;;;;;;;;;;;1040761;28;19913;-71
2023/06/20 00:02:26;;;;;;;;;;;;;;;;;;1044722;28;19959;-71
2023/06/20 00:02:56;;;;;;;;;;;;;;;;;;1045204;28;19939;-71
2023/06/20 00:03:27;;;;;;;;;;;;;;;;;;1040274;28;19964;-72
2023/06/20 00:03:57;;;;;;;;;;;;;;;;;;1040269;28;19913;-72
2023/06/20 00:04:27;;;;;;;;;;;;;;;;;;1040371;28;19917;-71
2023/06/20 00:04:57;;;;;;;;;;;;;;;;;;1040229;28;19913;-71
2023/06/20 00:05:28;;;;;;;;;;;;;;;;;;1044769;28;19913;-71
2023/06/20 00:05:58;;;;;;;;;;;;;;;;;;1045341;28;19919;-72
2023/06/20 00:06:28;;;;;;;;;;;;;;;;;;1044705;28;19913;-72
2023/06/20 00:06:58;;;;;;;;;;;;;;;;;;1044632;28;20070;-71
2023/06/20 00:07:29;;;;;;;;;;;;;;;;;;1042605;28;20040;-72
2023/06/20 00:07:59;;;;;;;;;;;;;;;;;;1044539;28;20296;-72
2023/06/20 00:08:29;;;;;;;;;;;;;;;;;;1040778;28;19913;-72
2023/06/20 00:08:59;;;;;;;;;;;;;;;;;;1038193;28;19993;-71
2023/06/20 00:09:30;;;;;;;;;;;;;;;;;;1038340;28;20280;-71
2023/06/20 00:10:00;;;;;;;;;;;;;;;;;;1038366;28;20456;-71
2023/06/20 00:10:30;;;;;;;;;;;;;;;;;;1040091;28;19917;-71
2023/06/20 00:11:00;;;;;;;;;;;;;;;;;;1043607;28;19919;-72
2023/06/20 00:11:31;;;;;;;;;;;;;;;;;;1044885;28;19920;-72
2023/06/20 00:12:01;;;;;;;;;;;;;;;;;;1043926;28;19913;-72
2023/06/20 00:12:31;;;;;;;;;;;;;;;;;;1040093;28;20273;-71
2023/06/20 00:13:01;;;;;;;;;;;;;;;;;;1040146;28;19917;-71
2023/06/20 00:13:31;;;;;;;;;;;;;;;;;;1036047;28;19921;-71
2023/06/20 00:14:02;;;;;;;;;;;;;;;;;;1036270;28;19920;-71
2023/06/20 00:14:32;;;;;;;;;;;;;;;;;;1036495;28;19920;-72
2023/06/20 00:15:02;;;;;;;;;;;;;;;;;;1036223;28;19913;-72
2023/06/20 00:15:33;;;;;;;;;;;;;;;;;;1040118;28;20315;-72
2023/06/20 00:16:03;;;;;;;;;;;;;;;;;;1044638;28;19919;-71
2023/06/20 00:16:34;;;;;;;;;;;;;;;;;;1044617;28;20288;-72
2023/06/20 00:17:05;;;;;;;;;;;;;;;;;;1040391;28;19913;-71
2023/06/20 00:17:36;;;;;;;;;;;;;;;;;;1040170;28;20319;-72
2023/06/20 00:18:06;;;;;;;;;;;;;;;;;;1040277;28;19913;-72
2023/06/20 00:18:36;;;;;;;;;;;;;;;;;;1034973;28;19920;-71
2023/06/20 00:19:08;;;;;;;;;;;;;;;;;;1040132;28;20388;-71
2023/06/20 00:19:39;;;;;;;;;;;;;;;;;;1040112;28;19917;-72
2023/06/20 00:20:09;;;;;;;;;;;;;;;;;;1040532;28;20412;-71
2023/06/20 00:20:39;;;;;;;;;;;;;;;;;;1040072;28;20050;-71
2023/06/20 00:21:10;;;;;;;;;;;;;;;;;;1040398;28;19913;-72
2023/06/20 00:21:40;;;;;;;;;;;;;;;;;;1040072;28;19983;-72
2023/06/20 00:22:10;;;;;;;;;;;;;;;;;;1044631;28;20007;-72
2023/06/20 00:22:40;;;;;;;;;;;;;;;;;;1044516;28;20038;-72
2023/06/20 00:23:10;;;;;;;;;;;;;;;;;;1040150;28;20016;-71
2023/06/20 00:23:42;;;;;;;;;;;;;;;;;;1040069;28;19967;-71
2023/06/20 00:24:12;;;;;;;;;;;;;;;;;;1040277;28;19920;-71
2023/06/20 00:24:42;;;;;;;;;;;;;;;;;;1039708;28;20015;-71
2023/06/20 00:25:13;;;;;;;;;;;;;;;;;;1044298;28;19952;-71
2023/06/20 00:25:43;;;;;;;;;;;;;;;;;;1044717;28;19935;-71
2023/06/20 00:26:13;;;;;;;;;;;;;;;;;;1044674;28;20295;-71
2023/06/20 00:26:43;;;;;;;;;;;;;;;;;;1044326;28;20437;-72
2023/06/20 00:27:14;;;;;;;;;;;;;;;;;;1040344;28;19917;-71
2023/06/20 00:27:44;;;;;;;;;;;;;;;;;;1040034;28;19917;-72
2023/06/20 00:28:17;;;;;;;;;;;;;;;;;;1040325;28;19917;-71
2023/06/20 00:28:47;;;;;;;;;;;;;;;;;;1039182;28;19913;-72
2023/06/20 00:29:17;;;;;;;;;;;;;;;;;;1044751;28;19960;-72
2023/06/20 00:29:47;;;;;;;;;;;;;;;;;;1044466;28;19959;-72
2023/06/20 00:30:17;;;;;;;;;;;;;;;;;;1044717;28;20269;-72
2023/06/20 00:30:48;;;;;;;;;;;;;;;;;;1044430;28;19913;-72
2023/06/20 00:31:18;;;;;;;;;;;;;;;;;;1044858;28;19913;-71
2023/06/20 00:31:48;;;;;;;;;;;;;;;;;;1044529;28;19913;-71
2023/06/20 00:32:19;;;;;;;;;;;;;;;;;;1044588;28;19917;-72
2023/06/20 00:32:49;;;;;;;;;;;;;;;;;;1044467;28;19920;-71
2023/06/20 00:33:19;;;;;;;;;;;;;;;;;;1044717;28;20006;-72
2023/06/20 00:33:49;;;;;;;;;;;;;;;;;;1044497;28;19917;-72
2023/06/20 00:34:20;;;;;;;;;;;;;;;;;;1045357;28;19924;-71
2023/06/20 00:34:50;;;;;;;;;;;;;;;;;;1044486;28;19916;-71
2023/06/20 00:35:20;;;;;;;;;;;;;;;;;;1044660;28;20445;-71
2023/06/20 00:35:50;;;;;;;;;;;;;;;;;;1044527;28;20333;-71
2023/06/20 00:36:26;;;;;;;;;;;;;;;;;;1044587;28;20019;-71
2023/06/20 00:36:57;;;;;;;;;;;;;;;;;;1040322;28;19913;-71
2023/06/20 00:37:27;;;;;;;;;;;;;;;;;;1040196;28;19918;-71
2023/06/20 00:37:57;;;;;;;;;;;;;;;;;;1040100;28;19948;-71
2023/06/20 00:38:29;;;;;;;;;;;;;;;;;;1040004;28;19963;-72
2023/06/20 00:38:59;;;;;;;;;;;;;;;;;;1040119;28;20103;-71
2023/06/20 00:39:29;;;;;;;;;;;;;;;;;;1040679;28;19916;-71
2023/06/20 00:39:59;;;;;;;;;;;;;;;;;;1040198;28;19913;-71
2023/06/20 00:40:30;;;;;;;;;;;;;;;;;;1039935;28;19913;-71
2023/06/20 00:41:00;;;;;;;;;;;;;;;;;;1035724;28;20009;-71
2023/06/20 00:41:31;;;;;;;;;;;;;;;;;;1035974;28;19913;-71
2023/06/20 00:42:01;;;;;;;;;;;;;;;;;;1036083;28;19913;-71
2023/06/20 00:42:32;;;;;;;;;;;;;;;;;;1036047;28;19936;-71
2023/06/20 00:43:03;;;;;;;;;;;;;;;;;;1037690;28;19919;-71
2023/06/20 00:43:34;;;;;;;;;;;;;;;;;;1036769;28;20347;-71
2023/06/20 00:44:04;;;;;;;;;;;;;;;;;;1042502;28;20020;-71
2023/06/20 00:44:34;;;;;;;;;;;;;;;;;;1042110;28;20383;-72
2023/06/20 00:45:04;;;;;;;;;;;;;;;;;;1046556;28;19913;-71
2023/06/20 00:45:35;;;;;;;;;;;;;;;;;;1047181;28;20006;-72
2023/06/20 00:46:05;;;;;;;;;;;;;;;;;;1039254;28;20348;-72
2023/06/20 00:46:35;;;;;;;;;;;;;;;;;;1039803;28;19917;-72
2023/06/20 00:47:05;;;;;;;;;;;;;;;;;;1040191;28;19921;-71
2023/06/20 00:47:36;;;;;;;;;;;;;;;;;;1037760;28;20369;-72
2023/06/20 00:48:06;;;;;;;;;;;;;;;;;;1040667;28;20371;-72
2023/06/20 00:48:36;;;;;;;;;;;;;;;;;;1044326;28;19913;-72
2023/06/20 00:49:06;;;;;;;;;;;;;;;;;;1044458;28;19913;-72
2023/06/20 00:49:37;;;;;;;;;;;;;;;;;;1044280;28;20050;-71
2023/06/20 00:50:07;;;;;;;;;;;;;;;;;;1043953;28;19917;-72
2023/06/20 00:50:37;;;;;;;;;;;;;;;;;;1043712;28;20603;-72
2023/06/20 00:51:07;;;;;;;;;;;;;;;;;;1044666;28;19982;-71
2023/06/20 00:51:37;;;;;;;;;;;;;;;;;;1044045;28;19935;-71
2023/06/20 00:52:08;;;;;;;;;;;;;;;;;;1044134;28;20295;-72
2023/06/20 00:52:38;;;;;;;;;;;;;;;;;;1044003;28;19924;-72
2023/06/20 00:53:08;;;;;;;;;;;;;;;;;;1044118;28;19917;-71
2023/06/20 00:53:38;;;;;;;;;;;;;;;;;;1045075;28;20296;-72
2023/06/20 00:54:09;;;;;;;;;;;;;;;;;;1043880;28;19913;-71
2023/06/20 00:54:39;;;;;;;;;;;;;;;;;;1043387;28;19913;-72
2023/06/20 00:55:09;;;;;;;;;;;;;;;;;;1043749;28;19913;-71
2023/06/20 00:55:39;;;;;;;;;;;;;;;;;;1044013;28;19913;-72
2023/06/20 00:56:10;;;;;;;;;;;;;;;;;;1039490;28;19967;-72
2023/06/20 00:56:42;;;;;;;;;;;;;;;;;;1039813;28;19913;-71
2023/06/20 00:57:12;;;;;;;;;;;;;;;;;;1039821;28;19978;-71
2023/06/20 00:57:42;;;;;;;;;;;;;;;;;;1037702;28;20281;-71
2023/06/20 00:58:12;;;;;;;;;;;;;;;;;;1039800;28;20700;-72
2023/06/20 00:58:43;;;;;;;;;;;;;;;;;;1038471;28;20007;-71
2023/06/20 00:59:13;;;;;;;;;;;;;;;;;;1040087;28;19917;-72
2023/06/20 00:59:44;;;;;;;;;;;;;;;;;;1039406;28;19924;-71
2023/06/20 01:00:14;;;;;;;;;;;;;;;;;;1034341;28;19918;-71
2023/06/20 01:00:44;;;;;;;;;;;;;;;;;;1035116;28;19939;-71
2023/06/20 01:01:16;;;;;;;;;;;;;;;;;;1037283;28;19920;-72
2023/06/20 01:01:47;;;;;;;;;;;;;;;;;;1037733;28;20419;-72
2023/06/20 01:02:17;;;;;;;;;;;;;;;;;;1041993;28;19924;-71
2023/06/20 01:02:47;;;;;;;;;;;;;;;;;;1045945;28;19956;-71
2023/06/20 01:03:18;;;;;;;;;;;;;;;;;;1039780;28;19913;-71
2023/06/20 01:03:48;;;;;;;;;;;;;;;;;;1039669;28;19920;-71
2023/06/20 01:04:21;;;;;;;;;;;;;;;;;;1040016;28;20055;-72
2023/06/20 01:04:51;;;;;;;;;;;;;;;;;;1040013;28;19959;-72
2023/06/20 01:05:27;;;;;;;;;;;;;;;;;;1039418;28;20387;-72
2023/06/20 01:05:57;;;;;;;;;;;;;;;;;;1038786;28;19912;-72
2023/06/20 01:06:27;;;;;;;;;;;;;;;;;;1039628;28;19917;-72
2023/06/20 01:06:59;;;;;;;;;;;;;;;;;;1040466;28;19967;-72
2023/06/20 01:07:30;;;;;;;;;;;;;;;;;;1044323;28;19913;-72
2023/06/20 01:08:00;;;;;;;;;;;;;;;;;;1044556;28;19947;-72
2023/06/20 01:08:30;;;;;;;;;;;;;;;;;;1039897;28;19963;-72
2023/06/20 01:09:00;;;;;;;;;;;;;;;;;;1037801;28;20372;-71
2023/06/20 01:09:31;;;;;;;;;;;;;;;;;;1039547;28;19917;-71
2023/06/20 01:10:01;;;;;;;;;;;;;;;;;;1039564;28;19913;-72
2023/06/20 01:10:32;;;;;;;;;;;;;;;;;;1043388;28;19919;-72
2023/06/20 01:11:02;;;;;;;;;;;;;;;;;;1042725;28;19919;-72
2023/06/20 01:11:32;;;;;;;;;;;;;;;;;;1043357;28;19912;-72
2023/06/20 01:12:02;;;;;;;;;;;;;;;;;;1044127;28;19913;-72
2023/06/20 01:12:33;;;;;;;;;;;;;;;;;;1042958;28;20371;-72
2023/06/20 01:13:03;;;;;;;;;;;;;;;;;;1044149;28;19919;-72
2023/06/20 01:13:33;;;;;;;;;;;;;;;;;;1042907;28;19913;-72
2023/06/20 01:14:03;;;;;;;;;;;;;;;;;;1044385;28;19913;-72
2023/06/20 01:14:36;;;;;;;;;;;;;;;;;;1039840;28;20415;-71
2023/06/20 01:15:06;;;;;;;;;;;;;;;;;;1038601;28;19913;-71
2023/06/20 01:15:37;;;;;;;;;;;;;;;;;;1039633;28;19917;-71
2023/06/20 01:16:07;;;;;;;;;;;;;;;;;;1040479;28;20415;-71
2023/06/20 01:16:37;;;;;;;;;;;;;;;;;;1044047;28;19912;-72
2023/06/20 01:17:07;;;;;;;;;;;;;;;;;;1042730;28;19917;-72
2023/06/20 01:17:38;;;;;;;;;;;;;;;;;;1043180;28;19913;-71
2023/06/20 01:18:08;;;;;;;;;;;;;;;;;;1043286;28;20398;-72
2023/06/20 01:18:43;;;;;;;;;;;;;;;;;;1039162;28;19913;-72
2023/06/20 01:19:14;;;;;;;;;;;;;;;;;;1040319;28;20011;-71
2023/06/20 01:19:44;;;;;;;;;;;;;;;;;;1038737;28;20406;-72
2023/06/20 01:20:16;;;;;;;;;;;;;;;;;;1038041;28;20419;-71
2023/06/20 01:20:46;;;;;;;;;;;;;;;;;;1043988;28;20402;-72
2023/06/20 01:21:16;;;;;;;;;;;;;;;;;;1043235;28;19917;-72
2023/06/20 01:21:46;;;;;;;;;;;;;;;;;;1043460;28;19928;-72
2023/06/20 01:22:17;;;;;;;;;;;;;;;;;;1044193;28;19952;-72
2023/06/20 01:22:47;;;;;;;;;;;;;;;;;;1044111;28;19978;-72
2023/06/20 01:23:17;;;;;;;;;;;;;;;;;;1044082;28;19991;-72
2023/06/20 01:23:47;;;;;;;;;;;;;;;;;;1042376;28;20479;-72
2023/06/20 01:24:18;;;;;;;;;;;;;;;;;;1042364;28;19956;-72
2023/06/20 01:24:49;;;;;;;;;;;;;;;;;;1042907;28;19966;-72
2023/06/20 01:25:19;;;;;;;;;;;;;;;;;;1043422;28;19963;-72
2023/06/20 01:25:50;;;;;;;;;;;;;;;;;;1042775;28;20405;-72
2023/06/20 01:26:20;;;;;;;;;;;;;;;;;;1039912;28;19917;-72
2023/06/20 01:26:50;;;;;;;;;;;;;;;;;;1036124;28;19913;-71
2023/06/20 01:27:20;;;;;;;;;;;;;;;;;;1037468;28;19952;-72
2023/06/20 01:27:51;;;;;;;;;;;;;;;;;;1035854;28;19923;-72
2023/06/20 01:28:21;;;;;;;;;;;;;;;;;;1037008;28;20467;-72
2023/06/20 01:28:51;;;;;;;;;;;;;;;;;;1037920;28;19913;-72
2023/06/20 01:29:21;;;;;;;;;;;;;;;;;;1038779;28;19978;-72
2023/06/20 01:29:52;;;;;;;;;;;;;;;;;;1035449;28;19945;-72
2023/06/20 01:30:22;;;;;;;;;;;;;;;;;;1036701;28;20478;-72
2023/06/20 01:30:52;;;;;;;;;;;;;;;;;;1037233;28;19914;-72
2023/06/20 01:31:22;;;;;;;;;;;;;;;;;;1036808;28;20601;-72
2023/06/20 01:31:53;;;;;;;;;;;;;;;;;;1039284;28;19992;-72
2023/06/20 01:32:23;;;;;;;;;;;;;;;;;;1039115;28;19917;-72
2023/06/20 01:32:53;;;;;;;;;;;;;;;;;;1038092;28;20068;-72
2023/06/20 01:33:24;;;;;;;;;;;;;;;;;;1032756;28;19914;-71
2023/06/20 01:33:54;;;;;;;;;;;;;;;;;;1039033;28;19924;-72
2023/06/20 01:34:26;;;;;;;;;;;;;;;;;;1038803;28;19923;-72
2023/06/20 01:34:56;;;;;;;;;;;;;;;;;;1036574;28;19915;-72
2023/06/20 01:35:26;;;;;;;;;;;;;;;;;;1036959;28;19917;-72
2023/06/20 01:35:57;;;;;;;;;;;;;;;;;;1036063;28;20324;-72
2023/06/20 01:36:27;;;;;;;;;;;;;;;;;;1039660;28;20286;-72
2023/06/20 01:36:57;;;;;;;;;;;;;;;;;;1042656;28;20003;-72
2023/06/20 01:37:27;;;;;;;;;;;;;;;;;;1042391;28;19919;-72
2023/06/20 01:37:58;;;;;;;;;;;;;;;;;;1039361;28;19913;-72
2023/06/20 01:38:28;;;;;;;;;;;;;;;;;;1040540;28;20428;-72
2023/06/20 01:38:58;;;;;;;;;;;;;;;;;;1039015;28;19928;-72
2023/06/20 01:39:30;;;;;;;;;;;;;;;;;;1038607;28;19921;-72
2023/06/20 01:40:00;;;;;;;;;;;;;;;;;;1039696;28;20420;-72
2023/06/20 01:40:30;;;;;;;;;;;;;;;;;;1044098;28;19995;-72
2023/06/20 01:41:01;;;;;;;;;;;;;;;;;;1043201;28;20265;-72
2023/06/20 01:41:31;;;;;;;;;;;;;;;;;;1043467;28;20341;-72
2023/06/20 01:42:01;;;;;;;;;;;;;;;;;;1044098;28;19917;-72
2023/06/20 01:42:31;;;;;;;;;;;;;;;;;;1038748;28;19983;-72
2023/06/20 01:43:02;;;;;;;;;;;;;;;;;;1039531;28;19936;-73
2023/06/20 01:43:32;;;;;;;;;;;;;;;;;;1038956;28;19913;-72
2023/06/20 01:44:02;;;;;;;;;;;;;;;;;;1034701;28;19920;-73
2023/06/20 01:44:36;;;;;;;;;;;;;;;;;;1035798;28;20347;-72
2023/06/20 01:45:06;;;;;;;;;;;;;;;;;;1039481;28;20030;-73
2023/06/20 01:45:36;;;;;;;;;;;;;;;;;;1038606;28;20027;-72
2023/06/20 01:46:06;;;;;;;;;;;;;;;;;;1038031;28;19913;-71
2023/06/20 01:46:37;;;;;;;;;;;;;;;;;;1042503;28;20563;-71
2023/06/20 01:47:07;;;;;;;;;;;;;;;;;;1043055;28;19913;-71
2023/06/20 01:47:37;;;;;;;;;;;;;;;;;;1043643;28;20368;-71
2023/06/20 01:48:07;;;;;;;;;;;;;;;;;;1039521;28;20454;-73
2023/06/20 01:48:38;;;;;;;;;;;;;;;;;;1038443;28;19955;-71
2023/06/20 01:49:08;;;;;;;;;;;;;;;;;;1039833;28;19912;-71
2023/06/20 01:49:38;;;;;;;;;;;;;;;;;;1038878;28;19928;-71
2023/06/20 01:50:09;;;;;;;;;;;;;;;;;;1039908;28;20422;-72
2023/06/20 01:50:39;;;;;;;;;;;;;;;;;;1043588;28;19995;-72
2023/06/20 01:51:09;;;;;;;;;;;;;;;;;;1043623;28;19920;-72
2023/06/20 01:51:39;;;;;;;;;;;;;;;;;;1043783;28;20023;-71
2023/06/20 01:52:10;;;;;;;;;;;;;;;;;;1044174;28;19960;-71
2023/06/20 01:52:40;;;;;;;;;;;;;;;;;;1043853;28;19913;-72
2023/06/20 01:53:10;;;;;;;;;;;;;;;;;;1044318;28;20359;-72
2023/06/20 01:53:40;;;;;;;;;;;;;;;;;;1043875;28;20430;-72
2023/06/20 01:54:11;;;;;;;;;;;;;;;;;;1043044;28;20368;-72
2023/06/20 01:54:41;;;;;;;;;;;;;;;;;;1043983;28;19963;-72
2023/06/20 01:55:11;;;;;;;;;;;;;;;;;;1043488;28;19920;-72
2023/06/20 01:55:41;;;;;;;;;;;;;;;;;;1044921;28;20502;-72
2023/06/20 01:56:12;;;;;;;;;;;;;;;;;;1045042;28;20011;-72
2023/06/20 01:56:42;;;;;;;;;;;;;;;;;;1039922;28;19928;-72
2023/06/20 01:57:12;;;;;;;;;;;;;;;;;;1039361;28;20012;-72
2023/06/20 01:57:42;;;;;;;;;;;;;;;;;;1040328;28;19912;-72
2023/06/20 01:58:13;;;;;;;;;;;;;;;;;;1037708;28;19997;-72
2023/06/20 01:58:43;;;;;;;;;;;;;;;;;;1042849;28;20229;-71
2023/06/20 01:59:13;;;;;;;;;;;;;;;;;;1044112;28;20291;-71
2023/06/20 01:59:43;;;;;;;;;;;;;;;;;;1037214;28;19921;-72
2023/06/20 02:00:14;;;;;;;;;;;;;;;;;;1038778;28;19940;-72
2023/06/20 02:00:44;;;;;;;;;;;;;;;;;;1035507;28;19958;-71
2023/06/20 02:01:14;;;;;;;;;;;;;;;;;;1036265;28;19917;-71
2023/06/20 02:01:44;;;;;;;;;;;;;;;;;;1042742;28;19955;-72
2023/06/20 02:02:15;;;;;;;;;;;;;;;;;;1041543;28;19913;-72
2023/06/20 02:02:45;;;;;;;;;;;;;;;;;;1046651;28;19912;-72
2023/06/20 02:03:16;;;;;;;;;;;;;;;;;;1041247;28;19913;-73
2023/06/20 02:03:46;;;;;;;;;;;;;;;;;;1039896;28;20310;-72
2023/06/20 02:04:17;;;;;;;;;;;;;;;;;;1036170;28;19918;-72
2023/06/20 02:04:47;;;;;;;;;;;;;;;;;;1036186;28;19957;-72
2023/06/20 02:05:17;;;;;;;;;;;;;;;;;;1035328;28;20000;-72
2023/06/20 02:05:47;;;;;;;;;;;;;;;;;;1039863;28;19963;-72
2023/06/20 02:06:18;;;;;;;;;;;;;;;;;;1039550;28;19929;-72
2023/06/20 02:06:48;;;;;;;;;;;;;;;;;;1039494;28;19920;-72
2023/06/20 02:07:18;;;;;;;;;;;;;;;;;;1035493;28;20351;-72
2023/06/20 02:07:48;;;;;;;;;;;;;;;;;;1039462;28;19921;-72
2023/06/20 02:08:18;;;;;;;;;;;;;;;;;;1043544;28;19944;-72
2023/06/20 02:08:49;;;;;;;;;;;;;;;;;;1041619;28;19917;-72
2023/06/20 02:09:19;;;;;;;;;;;;;;;;;;1044635;28;19916;-72
2023/06/20 02:09:49;;;;;;;;;;;;;;;;;;1044404;28;20616;-72
2023/06/20 02:10:21;;;;;;;;;;;;;;;;;;1044464;28;20011;-72
2023/06/20 02:10:51;;;;;;;;;;;;;;;;;;1042771;28;20035;-72
2023/06/20 02:11:21;;;;;;;;;;;;;;;;;;1041843;28;20002;-72
2023/06/20 02:11:52;;;;;;;;;;;;;;;;;;1042777;28;19917;-72
2023/06/20 02:12:22;;;;;;;;;;;;;;;;;;1038014;28;19917;-72
2023/06/20 02:12:52;;;;;;;;;;;;;;;;;;1040349;28;20057;-71
2023/06/20 02:13:22;;;;;;;;;;;;;;;;;;1040208;28;19917;-72
2023/06/20 02:13:52;;;;;;;;;;;;;;;;;;1039772;28;19910;-72
2023/06/20 02:14:23;;;;;;;;;;;;;;;;;;1043729;28;20372;-72
2023/06/20 02:14:53;;;;;;;;;;;;;;;;;;1043755;28;19913;-72
2023/06/20 02:15:23;;;;;;;;;;;;;;;;;;1039312;28;19917;-72
2023/06/20 02:15:54;;;;;;;;;;;;;;;;;;1040054;28;19952;-72
2023/06/20 02:16:24;;;;;;;;;;;;;;;;;;1039485;28;19963;-72
2023/06/20 02:16:54;;;;;;;;;;;;;;;;;;1039495;28;19921;-72
2023/06/20 02:17:24;;;;;;;;;;;;;;;;;;1044712;28;19920;-72
2023/06/20 02:17:54;;;;;;;;;;;;;;;;;;1042926;28;19920;-72
2023/06/20 02:18:31;;;;;;;;;;;;;;;;;;1043743;28;19917;-72
2023/06/20 02:19:02;;;;;;;;;;;;;;;;;;1038586;28;19913;-71
2023/06/20 02:19:32;;;;;;;;;;;;;;;;;;1038084;28;19924;-72
2023/06/20 02:20:04;;;;;;;;;;;;;;;;;;1038830;28;19971;-73
2023/06/20 02:20:34;;;;;;;;;;;;;;;;;;1032686;28;19917;-72
2023/06/20 02:21:05;;;;;;;;;;;;;;;;;;1033237;28;19932;-72
2023/06/20 02:21:35;;;;;;;;;;;;;;;;;;1033186;28;20369;-72
2023/06/20 02:22:05;;;;;;;;;;;;;;;;;;1031018;28;20041;-72
2023/06/20 02:22:35;;;;;;;;;;;;;;;;;;1034765;28;19922;-72
2023/06/20 02:23:07;;;;;;;;;;;;;;;;;;1035074;28;19956;-72
2023/06/20 02:23:37;;;;;;;;;;;;;;;;;;1038394;28;19917;-72
2023/06/20 02:24:07;;;;;;;;;;;;;;;;;;1038829;28;20318;-72
2023/06/20 02:24:38;;;;;;;;;;;;;;;;;;1035141;28;19922;-72
2023/06/20 02:25:09;;;;;;;;;;;;;;;;;;1035803;28;19921;-72
2023/06/20 02:25:39;;;;;;;;;;;;;;;;;;1035587;28;20276;-73
2023/06/20 02:26:09;;;;;;;;;;;;;;;;;;1034928;28;20015;-71
2023/06/20 02:26:39;;;;;;;;;;;;;;;;;;1039209;28;19952;-71
2023/06/20 02:27:10;;;;;;;;;;;;;;;;;;1044636;28;19947;-71
2023/06/20 02:27:40;;;;;;;;;;;;;;;;;;1043827;28;20027;-72
2023/06/20 02:28:10;;;;;;;;;;;;;;;;;;1042621;28;19916;-71
2023/06/20 02:28:40;;;;;;;;;;;;;;;;;;1038225;28;20438;-73
2023/06/20 02:29:11;;;;;;;;;;;;;;;;;;1039596;28;19948;-71
2023/06/20 02:29:42;;;;;;;;;;;;;;;;;;1037494;28;19917;-73
2023/06/20 02:30:13;;;;;;;;;;;;;;;;;;1038371;28;19922;-71
2023/06/20 02:30:43;;;;;;;;;;;;;;;;;;1035580;28;20423;-71
2023/06/20 02:31:13;;;;;;;;;;;;;;;;;;1032958;28;19925;-71
2023/06/20 02:31:44;;;;;;;;;;;;;;;;;;1032015;28;19918;-70
2023/06/20 02:32:14;;;;;;;;;;;;;;;;;;1035890;28;19937;-73
2023/06/20 02:32:44;;;;;;;;;;;;;;;;;;1035202;28;19921;-74
2023/06/20 02:33:15;;;;;;;;;;;;;;;;;;1039287;28;19913;-73
2023/06/20 02:33:45;;;;;;;;;;;;;;;;;;1037955;28;19913;-73
2023/06/20 02:34:17;;;;;;;;;;;;;;;;;;1037089;28;20469;-73
2023/06/20 02:34:47;;;;;;;;;;;;;;;;;;1039379;28;19921;-73
2023/06/20 02:35:17;;;;;;;;;;;;;;;;;;1044392;28;20412;-73
2023/06/20 02:35:48;;;;;;;;;;;;;;;;;;1044367;28;19956;-73
2023/06/20 02:36:18;;;;;;;;;;;;;;;;;;1043776;28;20356;-72
2023/06/20 02:36:48;;;;;;;;;;;;;;;;;;1044697;28;19967;-73
2023/06/20 02:37:18;;;;;;;;;;;;;;;;;;1044599;28;19928;-73
2023/06/20 02:37:49;;;;;;;;;;;;;;;;;;1043570;28;19912;-73
2023/06/20 02:38:19;;;;;;;;;;;;;;;;;;1044231;28;19927;-73
2023/06/20 02:38:49;;;;;;;;;;;;;;;;;;1042831;28;20233;-73
2023/06/20 02:39:19;;;;;;;;;;;;;;;;;;1039433;28;19917;-73
2023/06/20 02:39:50;;;;;;;;;;;;;;;;;;1039001;28;20514;-73
2023/06/20 02:40:20;;;;;;;;;;;;;;;;;;1039183;28;19928;-73
2023/06/20 02:40:50;;;;;;;;;;;;;;;;;;1038433;28;19913;-73
2023/06/20 02:41:20;;;;;;;;;;;;;;;;;;1039648;28;20439;-73
2023/06/20 02:41:51;;;;;;;;;;;;;;;;;;1038960;28;20384;-72
2023/06/20 02:42:21;;;;;;;;;;;;;;;;;;1039420;28;19939;-73
2023/06/20 02:42:51;;;;;;;;;;;;;;;;;;1038695;28;20023;-74
2023/06/20 02:43:21;;;;;;;;;;;;;;;;;;1039423;28;20487;-73
2023/06/20 02:43:52;;;;;;;;;;;;;;;;;;1034546;28;19966;-73
2023/06/20 02:44:22;;;;;;;;;;;;;;;;;;1033023;28;20298;-73
2023/06/20 02:44:52;;;;;;;;;;;;;;;;;;1031825;28;19924;-73
2023/06/20 02:45:23;;;;;;;;;;;;;;;;;;1032431;28;20011;-73
2023/06/20 02:45:53;;;;;;;;;;;;;;;;;;1035468;28;20024;-72
2023/06/20 02:46:23;;;;;;;;;;;;;;;;;;1034119;28;19960;-72
2023/06/20 02:46:53;;;;;;;;;;;;;;;;;;1033703;28;19917;-73
2023/06/20 02:47:24;;;;;;;;;;;;;;;;;;1041949;28;19921;-71
2023/06/20 02:47:54;;;;;;;;;;;;;;;;;;1038317;28;19921;-71
2023/06/20 02:48:24;;;;;;;;;;;;;;;;;;1036952;28;20020;-73
2023/06/20 02:48:54;;;;;;;;;;;;;;;;;;1041662;28;19923;-72
2023/06/20 02:49:25;;;;;;;;;;;;;;;;;;1034904;28;19921;-72
2023/06/20 02:49:56;;;;;;;;;;;;;;;;;;1038617;28;19928;-72
2023/06/20 02:50:27;;;;;;;;;;;;;;;;;;1043922;28;19913;-72
2023/06/20 02:50:57;;;;;;;;;;;;;;;;;;1042329;28;19916;-72
2023/06/20 02:51:27;;;;;;;;;;;;;;;;;;1043875;28;19916;-74
2023/06/20 02:51:58;;;;;;;;;;;;;;;;;;1043860;28;19912;-74
2023/06/20 02:52:28;;;;;;;;;;;;;;;;;;1044232;28;19928;-74
2023/06/20 02:53:00;;;;;;;;;;;;;;;;;;1038644;28;19913;-74
2023/06/20 02:53:30;;;;;;;;;;;;;;;;;;1038968;28;19921;-73
2023/06/20 02:54:01;;;;;;;;;;;;;;;;;;1037004;28;20369;-73
2023/06/20 02:54:31;;;;;;;;;;;;;;;;;;1039619;28;20494;-73
2023/06/20 02:55:01;;;;;;;;;;;;;;;;;;1042769;28;20368;-73
2023/06/20 02:55:34;;;;;;;;;;;;;;;;;;1042530;28;19921;-75
2023/06/20 02:56:05;;;;;;;;;;;;;;;;;;1042735;28;19921;-73
2023/06/20 02:56:36;;;;;;;;;;;;;;;;;;1043036;28;20433;-73
2023/06/20 02:57:06;;;;;;;;;;;;;;;;;;1043694;28;20030;-73
2023/06/20 02:57:36;;;;;;;;;;;;;;;;;;1043829;28;20466;-74
2023/06/20 02:58:06;;;;;;;;;;;;;;;;;;1044719;28;19923;-73
2023/06/20 02:58:37;;;;;;;;;;;;;;;;;;1044327;28;20031;-74
2023/06/20 02:59:07;;;;;;;;;;;;;;;;;;1038677;28;20015;-74
2023/06/20 02:59:37;;;;;;;;;;;;;;;;;;1039746;28;20376;-74
2023/06/20 03:00:10;;;;;;;;;;;;;;;;;;1038185;28;19917;-74
2023/06/20 03:00:41;;;;;;;;;;;;;;;;;;1039882;28;20363;-74
2023/06/20 03:01:11;;;;;;;;;;;;;;;;;;1038005;28;19924;-73
2023/06/20 03:01:41;;;;;;;;;;;;;;;;;;1038885;28;20284;-73
2023/06/20 03:02:11;;;;;;;;;;;;;;;;;;1036705;28;20104;-74
2023/06/20 03:02:42;;;;;;;;;;;;;;;;;;1038516;28;20050;-73
2023/06/20 03:03:12;;;;;;;;;;;;;;;;;;1036338;28;20273;-73
2023/06/20 03:03:42;;;;;;;;;;;;;;;;;;1038694;28;19978;-73
2023/06/20 03:04:13;;;;;;;;;;;;;;;;;;1037998;28;20380;-74
2023/06/20 03:04:44;;;;;;;;;;;;;;;;;;1039267;28;19917;-74
2023/06/20 03:05:14;;;;;;;;;;;;;;;;;;1043267;28;19916;-73
2023/06/20 03:05:44;;;;;;;;;;;;;;;;;;1043718;28;19920;-73
2023/06/20 03:06:14;;;;;;;;;;;;;;;;;;1043085;28;19912;-74
2023/06/20 03:06:45;;;;;;;;;;;;;;;;;;1042499;28;19916;-72
2023/06/20 03:07:15;;;;;;;;;;;;;;;;;;1043111;28;20600;-73
2023/06/20 03:07:45;;;;;;;;;;;;;;;;;;1042803;28;20468;-73
2023/06/20 03:08:15;;;;;;;;;;;;;;;;;;1042625;28;20052;-73
2023/06/20 03:08:49;;;;;;;;;;;;;;;;;;1042868;28;20288;-73
2023/06/20 03:09:19;;;;;;;;;;;;;;;;;;1043532;28;20024;-73
2023/06/20 03:09:49;;;;;;;;;;;;;;;;;;1043110;28;20339;-72
2023/06/20 03:10:20;;;;;;;;;;;;;;;;;;1042160;28;19921;-73
2023/06/20 03:10:50;;;;;;;;;;;;;;;;;;1038372;28;20055;-73
2023/06/20 03:11:20;;;;;;;;;;;;;;;;;;1037881;28;20012;-74
2023/06/20 03:11:50;;;;;;;;;;;;;;;;;;1037794;28;20003;-72
2023/06/20 03:12:21;;;;;;;;;;;;;;;;;;1036671;28;19929;-73
2023/06/20 03:12:51;;;;;;;;;;;;;;;;;;1037963;28;20381;-73
2023/06/20 03:13:21;;;;;;;;;;;;;;;;;;1036749;28;20729;-73
2023/06/20 03:13:51;;;;;;;;;;;;;;;;;;1034703;28;19914;-73
2023/06/20 03:14:22;;;;;;;;;;;;;;;;;;1032625;28;19920;-73
2023/06/20 03:14:52;;;;;;;;;;;;;;;;;;1035176;28;19925;-73
2023/06/20 03:15:23;;;;;;;;;;;;;;;;;;1034081;28;20325;-73
2023/06/20 03:15:55;;;;;;;;;;;;;;;;;;1037571;28;19933;-73
2023/06/20 03:16:26;;;;;;;;;;;;;;;;;;1042138;28;19919;-73
2023/06/20 03:16:56;;;;;;;;;;;;;;;;;;1033578;28;19950;-73
2023/06/20 03:17:26;;;;;;;;;;;;;;;;;;1035366;28;19942;-73
2023/06/20 03:18:00;;;;;;;;;;;;;;;;;;1035676;28;19917;-73
2023/06/20 03:18:30;;;;;;;;;;;;;;;;;;1035579;28;19956;-73
2023/06/20 03:19:02;;;;;;;;;;;;;;;;;;1039012;28;20509;-73
2023/06/20 03:19:33;;;;;;;;;;;;;;;;;;1043769;28;19912;-73
2023/06/20 03:20:04;;;;;;;;;;;;;;;;;;1043051;28;19913;-73
2023/06/20 03:20:34;;;;;;;;;;;;;;;;;;1042907;28;20459;-73
2023/06/20 03:21:04;;;;;;;;;;;;;;;;;;1043787;28;20952;-73
2023/06/20 03:21:35;;;;;;;;;;;;;;;;;;1043292;28;19917;-73
2023/06/20 03:22:05;;;;;;;;;;;;;;;;;;1038096;28;20448;-74
2023/06/20 03:22:35;;;;;;;;;;;;;;;;;;1038303;28;20382;-74
2023/06/20 03:23:05;;;;;;;;;;;;;;;;;;1038585;28;19919;-74
2023/06/20 03:23:37;;;;;;;;;;;;;;;;;;1035038;28;20282;-73
2023/06/20 03:24:08;;;;;;;;;;;;;;;;;;1039118;28;19928;-72
2023/06/20 03:24:38;;;;;;;;;;;;;;;;;;1038960;28;19935;-73
2023/06/20 03:25:08;;;;;;;;;;;;;;;;;;1039528;28;19917;-73
2023/06/20 03:25:39;;;;;;;;;;;;;;;;;;1039728;28;19926;-72
2023/06/20 03:26:09;;;;;;;;;;;;;;;;;;1037989;28;19991;-72
2023/06/20 03:26:40;;;;;;;;;;;;;;;;;;1037955;28;19913;-72
2023/06/20 03:27:11;;;;;;;;;;;;;;;;;;1038695;28;21746;-72
2023/06/20 03:27:41;;;;;;;;;;;;;;;;;;1038947;28;19939;-71
2023/06/20 03:28:11;;;;;;;;;;;;;;;;;;1041725;28;19921;-72